createdAt,value
2022-12-24T00:00:59.775Z,53.27
2022-12-24T00:03:29.332Z,52.99
2022-12-24T00:05:57.328Z,52.66
2022-12-24T00:08:25.386Z,53.14
2022-12-24T00:10:54.367Z,52.49
2022-12-24T00:13:22.732Z,52.38
2022-12-24T00:15:50.777Z,52.54
2022-12-24T00:18:18.675Z,52.41
2022-12-24T00:20:49.085Z,52.18
2022-12-24T00:23:17.775Z,52.85
2022-12-24T00:25:45.769Z,52.66
2022-12-24T00:28:14.724Z,52.58
2022-12-24T00:30:43.968Z,52.38
2022-12-24T00:33:11.973Z,52.58
2022-12-24T00:35:40.934Z,52.05
2022-12-24T00:38:10.497Z,51.96
2022-12-24T00:40:38.286Z,52.05
2022-12-24T00:43:06.102Z,52.50
2022-12-24T00:45:33.927Z,52.06
2022-12-24T00:48:01.787Z,52.16
2022-12-24T00:50:29.539Z,52.19
2022-12-24T00:52:57.557Z,52.47
2022-12-24T00:55:26.714Z,51.92
2022-12-24T00:57:54.548Z,52.01
2022-12-24T01:00:22.539Z,51.90
2022-12-24T01:02:50.550Z,52.41
2022-12-24T01:05:20.760Z,52.44
2022-12-24T01:07:47.666Z,52.18
2022-12-24T01:10:17.474Z,52.10
2022-12-24T01:12:48.178Z,52.58
2022-12-24T01:15:16.867Z,52.54
2022-12-24T01:17:44.691Z,52.84
2022-12-24T01:20:18.006Z,52.30
2022-12-24T01:22:46.530Z,52.77
2022-12-24T01:25:14.319Z,52.92
2022-12-24T01:27:42.281Z,52.99
2022-12-24T01:30:14.829Z,52.76
2022-12-24T01:32:42.725Z,52.81
2022-12-24T01:35:12.138Z,52.88
2022-12-24T01:37:40.175Z,53.18
2022-12-24T01:40:27.359Z,52.61
2022-12-24T01:43:12.696Z,52.75
2022-12-24T01:45:48.770Z,52.96
2022-12-24T01:48:36.622Z,52.89
2022-12-24T01:51:10.141Z,53.08
2022-12-24T01:53:40.526Z,52.86
2022-12-24T01:56:09.731Z,52.79
2022-12-24T01:58:41.284Z,52.69
2022-12-24T02:01:10.647Z,52.95
2022-12-24T02:03:38.814Z,53.34
2022-12-24T02:06:07.438Z,53.15
2022-12-24T02:08:40.844Z,52.77
2022-12-24T02:11:13.738Z,52.96
2022-12-24T02:13:41.845Z,53.49
2022-12-24T02:16:22.771Z,52.89
2022-12-24T02:19:01.605Z,52.48
2022-12-24T02:21:59.517Z,52.14
2022-12-24T02:24:56.003Z,52.50
2022-12-24T02:27:33.574Z,52.39
2022-12-24T02:30:07.831Z,52.47
2022-12-24T02:32:44.571Z,52.42
2022-12-24T02:35:17.025Z,52.86
2022-12-24T02:37:50.202Z,52.63
2022-12-24T02:40:23.201Z,52.72
2022-12-24T02:42:55.693Z,52.45
2022-12-24T02:45:29.426Z,52.72
2022-12-24T02:47:57.893Z,52.67
2022-12-24T02:50:26.333Z,52.77
2022-12-24T02:52:54.481Z,52.91
2022-12-24T02:55:26.461Z,52.39
2022-12-24T02:58:08.601Z,52.32
2022-12-24T03:00:48.793Z,52.25
2022-12-24T03:03:34.771Z,52.20
2022-12-24T03:06:10.922Z,52.33
2022-12-24T03:08:49.949Z,52.65
2022-12-24T03:11:19.650Z,52.71
2022-12-24T03:13:49.811Z,52.60
2022-12-24T03:16:24.209Z,52.66
2022-12-24T03:18:54.400Z,52.62
2022-12-24T03:21:28.139Z,52.56
2022-12-24T03:23:56.437Z,53.11
2022-12-24T03:26:26.059Z,52.87
2022-12-24T03:28:53.902Z,53.36
2022-12-24T03:31:23.087Z,53.24
2022-12-24T03:33:51.617Z,53.06
2022-12-24T03:36:19.426Z,53.02
2022-12-24T03:38:47.209Z,53.13
2022-12-24T03:41:15.182Z,53.09
2022-12-24T03:43:43.064Z,53.16
2022-12-24T03:46:10.956Z,53.46
2022-12-24T03:48:40.184Z,53.63
2022-12-24T03:51:18.624Z,53.18
2022-12-24T03:53:46.526Z,53.57
2022-12-24T03:56:14.472Z,53.19
2022-12-24T03:58:42.297Z,53.77
2022-12-24T04:01:10.146Z,53.62
2022-12-24T04:03:38.164Z,53.71
2022-12-24T04:06:10.094Z,53.60
2022-12-24T04:08:38.211Z,53.54
2022-12-24T04:11:09.864Z,53.68
2022-12-24T04:13:38.309Z,53.88
2022-12-24T04:16:08.964Z,53.72
2022-12-24T04:18:37.725Z,53.62
2022-12-24T04:21:07.738Z,53.71
2022-12-24T04:23:37.498Z,53.71
2022-12-24T04:26:07.260Z,53.24
2022-12-24T04:28:36.003Z,53.30
2022-12-24T04:31:06.486Z,53.72
2022-12-24T04:33:34.413Z,53.31
2022-12-24T04:36:03.904Z,53.60
2022-12-24T04:38:34.077Z,53.23
2022-12-24T04:41:02.096Z,53.39
2022-12-24T04:43:31.056Z,53.26
2022-12-24T04:46:06.033Z,53.11
2022-12-24T04:48:34.013Z,53.41
2022-12-24T04:51:03.115Z,53.78
2022-12-24T04:53:31.392Z,53.40
2022-12-24T04:56:00.535Z,53.25
2022-12-24T04:58:29.061Z,53.47
2022-12-24T05:00:57.412Z,53.77
2022-12-24T05:03:25.386Z,53.86
2022-12-24T05:05:59.628Z,53.71
2022-12-24T05:08:29.427Z,53.80
2022-12-24T05:10:57.959Z,53.56
2022-12-24T05:13:36.474Z,53.75
2022-12-24T05:16:08.549Z,53.99
2022-12-24T05:18:36.286Z,53.22
2022-12-24T05:21:04.432Z,53.51
2022-12-24T05:23:49.527Z,53.19
2022-12-24T05:26:23.117Z,53.71
2022-12-24T05:28:53.788Z,53.43
2022-12-24T05:31:22.272Z,53.70
2022-12-24T05:33:50.143Z,53.43
2022-12-24T05:36:18.020Z,53.39
2022-12-24T05:38:45.812Z,53.43
2022-12-24T05:41:13.608Z,53.79
2022-12-24T05:43:41.442Z,53.98
2022-12-24T05:46:13.528Z,53.68
2022-12-24T05:48:41.847Z,53.44
2022-12-24T05:51:12.907Z,53.85
2022-12-24T05:53:41.605Z,53.78
2022-12-24T05:56:12.533Z,53.89
2022-12-24T05:58:43.361Z,53.78
2022-12-24T06:01:13.485Z,53.81
2022-12-24T06:03:41.540Z,53.69
2022-12-24T06:06:11.986Z,53.89
2022-12-24T06:08:41.043Z,53.69
2022-12-24T06:11:11.300Z,53.37
2022-12-24T06:13:39.686Z,53.44
2022-12-24T06:16:09.306Z,53.73
2022-12-24T06:18:38.610Z,53.55
2022-12-24T06:21:08.045Z,53.79
2022-12-24T06:23:38.842Z,53.89
2022-12-24T06:26:08.609Z,53.39
2022-12-24T06:28:38.430Z,53.76
2022-12-24T06:31:07.629Z,53.45
2022-12-24T06:33:36.011Z,54.04
2022-12-24T06:36:13.209Z,53.34
2022-12-24T06:38:44.876Z,54.00
2022-12-24T06:41:13.022Z,54.05
2022-12-24T06:43:44.083Z,53.93
2022-12-24T06:46:12.020Z,53.60
2022-12-24T06:48:39.899Z,54.01
2022-12-24T06:51:09.119Z,53.46
2022-12-24T06:53:36.876Z,53.96
2022-12-24T06:56:06.283Z,54.00
2022-12-24T06:58:34.437Z,53.69
2022-12-24T07:01:03.180Z,53.94
2022-12-24T07:03:32.026Z,53.54
2022-12-24T07:06:01.792Z,53.46
2022-12-24T07:08:33.559Z,53.94
2022-12-24T07:11:01.901Z,54.01
2022-12-24T07:13:29.797Z,53.48
2022-12-24T07:16:01.965Z,53.75
2022-12-24T07:18:30.264Z,53.45
2022-12-24T07:20:58.456Z,53.89
2022-12-24T07:23:26.476Z,53.75
2022-12-24T07:25:55.631Z,53.30
2022-12-24T07:28:27.811Z,53.45
2022-12-24T07:30:56.334Z,53.16
2022-12-24T07:33:24.220Z,53.38
2022-12-24T07:35:59.401Z,52.66
2022-12-24T07:38:27.357Z,53.34
2022-12-24T07:40:56.775Z,53.43
2022-12-24T07:43:25.131Z,53.00
2022-12-24T07:45:56.089Z,53.17
2022-12-24T07:48:24.019Z,53.14
2022-12-24T07:50:51.942Z,53.03
2022-12-24T07:53:20.330Z,52.78
2022-12-24T07:55:48.113Z,52.79
2022-12-24T07:58:17.447Z,53.20
2022-12-24T08:00:45.702Z,53.30
2022-12-24T08:03:17.986Z,53.17
2022-12-24T08:05:46.376Z,53.33
2022-12-24T08:08:14.265Z,53.17
2022-12-24T08:10:43.360Z,53.24
2022-12-24T08:13:11.116Z,52.78
2022-12-24T08:15:40.324Z,53.28
2022-12-24T08:18:08.400Z,53.27
2022-12-24T08:20:38.346Z,53.25
2022-12-24T08:23:06.410Z,52.80
2022-12-24T08:25:34.191Z,52.99
2022-12-24T08:28:02.108Z,52.92
2022-12-24T08:30:29.928Z,53.33
2022-12-24T08:32:59.104Z,53.27
2022-12-24T08:35:26.892Z,52.76
2022-12-24T08:37:54.676Z,52.84
2022-12-24T08:40:22.651Z,53.19
2022-12-24T08:42:50.455Z,53.13
2022-12-24T08:45:18.687Z,53.27
2022-12-24T08:47:46.579Z,53.49
2022-12-24T08:50:16.176Z,53.05
2022-12-24T08:52:43.977Z,53.32
2022-12-24T08:55:11.741Z,53.41
2022-12-24T08:57:39.688Z,52.92
2022-12-24T09:00:09.479Z,53.05
2022-12-24T09:02:37.414Z,53.07
2022-12-24T09:05:06.027Z,53.10
2022-12-24T09:07:35.335Z,53.34
2022-12-24T09:10:03.622Z,53.16
2022-12-24T09:12:31.476Z,53.29
2022-12-24T09:15:03.499Z,52.95
2022-12-24T09:17:32.031Z,53.25
2022-12-24T09:19:59.933Z,53.51
2022-12-24T09:22:27.787Z,52.81
2022-12-24T09:24:57.140Z,52.67
2022-12-24T09:27:25.089Z,53.09
2022-12-24T09:29:52.885Z,52.80
2022-12-24T09:32:20.729Z,52.79
2022-12-24T09:34:48.711Z,52.92
2022-12-24T09:37:16.587Z,53.29
2022-12-24T09:39:44.516Z,52.64
2022-12-24T09:42:26.457Z,52.49
2022-12-24T09:45:03.205Z,52.47
2022-12-24T09:47:39.604Z,52.41
2022-12-24T09:50:26.829Z,52.33
2022-12-24T09:52:55.994Z,53.20
2022-12-24T09:55:29.402Z,52.93
2022-12-24T09:58:01.503Z,53.13
2022-12-24T10:00:32.054Z,52.57
2022-12-24T10:03:00.037Z,52.78
2022-12-24T10:05:34.220Z,53.12
2022-12-24T10:08:14.240Z,52.70
2022-12-24T10:10:51.231Z,52.79
2022-12-24T10:13:32.948Z,52.73
2022-12-24T10:16:07.914Z,53.30
2022-12-24T10:18:49.096Z,53.06
2022-12-24T10:21:27.586Z,52.77
2022-12-24T10:24:00.658Z,52.86
2022-12-24T10:26:31.980Z,53.19
2022-12-24T10:29:06.791Z,53.15
2022-12-24T10:31:37.048Z,52.78
2022-12-24T10:34:14.146Z,52.70
2022-12-24T10:36:41.962Z,53.45
2022-12-24T10:39:18.095Z,52.60
2022-12-24T10:41:47.283Z,52.96
2022-12-24T10:44:19.267Z,52.94
2022-12-24T10:46:48.217Z,52.95
2022-12-24T10:49:18.069Z,53.08
2022-12-24T10:51:50.891Z,52.91
2022-12-24T10:54:26.243Z,53.52
2022-12-24T10:56:58.198Z,52.88
2022-12-24T10:59:30.211Z,52.68
2022-12-24T11:02:00.084Z,53.26
2022-12-24T11:04:30.459Z,52.88
2022-12-24T11:07:00.076Z,53.20
2022-12-24T11:09:29.646Z,52.65
2022-12-24T11:12:01.457Z,52.85
2022-12-24T11:14:37.355Z,52.69
2022-12-24T11:17:06.069Z,53.20
2022-12-24T11:19:36.755Z,53.13
2022-12-24T11:22:06.836Z,53.24
2022-12-24T11:24:36.553Z,53.09
2022-12-24T11:27:25.734Z,52.72
2022-12-24T11:30:21.477Z,52.45
2022-12-24T11:32:51.186Z,52.78
2022-12-24T11:35:22.184Z,52.68
2022-12-24T11:37:50.506Z,52.83
2022-12-24T11:40:22.915Z,52.48
2022-12-24T11:42:53.186Z,53.34
2022-12-24T11:45:25.940Z,53.08
2022-12-24T11:47:54.555Z,53.62
2022-12-24T11:50:26.348Z,53.56
2022-12-24T11:53:01.845Z,52.71
2022-12-24T11:55:41.161Z,52.74
2022-12-24T11:58:19.301Z,52.61
2022-12-24T12:00:51.488Z,52.72
2022-12-24T12:03:30.889Z,52.11
2022-12-24T12:06:02.773Z,52.89
2022-12-24T12:08:34.208Z,53.03
2022-12-24T12:11:14.034Z,52.32
2022-12-24T12:13:45.255Z,52.76
2022-12-24T12:16:23.897Z,51.55
2022-12-24T12:18:56.433Z,51.92
2022-12-24T12:21:28.007Z,52.27
2022-12-24T12:24:02.354Z,51.61
2022-12-24T12:26:32.254Z,52.08
2022-12-24T12:29:05.371Z,51.61
2022-12-24T12:31:37.212Z,51.28
2022-12-24T12:34:10.958Z,51.67
2022-12-24T12:36:45.166Z,51.23
2022-12-24T12:39:13.064Z,51.86
2022-12-24T12:41:51.409Z,50.88
2022-12-24T12:44:48.112Z,50.37
2022-12-24T12:47:35.679Z,50.62
2022-12-24T12:50:12.265Z,50.95
2022-12-24T12:52:56.158Z,50.90
2022-12-24T12:55:34.962Z,50.53
2022-12-24T12:58:07.839Z,50.65
2022-12-24T13:00:40.693Z,50.59
2022-12-24T13:03:22.818Z,51.56
2022-12-24T13:06:12.442Z,50.00
2022-12-24T13:09:04.419Z,49.63
2022-12-24T13:11:46.489Z,49.72
2022-12-24T13:14:28.549Z,50.09
2022-12-24T13:17:29.160Z,49.65
2022-12-24T13:20:19.557Z,49.33
2022-12-24T13:22:55.314Z,49.68
2022-12-24T13:25:27.599Z,50.54
2022-12-24T13:27:55.585Z,50.41
2022-12-24T13:30:38.908Z,49.20
2022-12-24T13:33:11.531Z,49.78
2022-12-24T13:35:59.822Z,48.53
2022-12-24T13:38:40.694Z,48.41
2022-12-24T13:41:57.806Z,48.14
2022-12-24T13:44:32.797Z,49.11
2022-12-24T13:47:26.823Z,48.23
2022-12-24T13:50:13.532Z,48.45
2022-12-24T13:52:52.481Z,47.46
2022-12-24T13:55:20.654Z,48.59
2022-12-24T13:57:57.326Z,47.83
2022-12-24T14:00:44.562Z,46.89
2022-12-24T14:03:32.780Z,47.43
2022-12-24T14:06:03.761Z,48.46
2022-12-24T14:08:42.535Z,47.65
2022-12-24T14:11:13.920Z,48.35
2022-12-24T14:14:12.754Z,47.50
2022-12-24T14:16:49.785Z,47.92
2022-12-24T14:19:21.638Z,48.12
2022-12-24T14:21:56.506Z,47.52
2022-12-24T14:24:28.401Z,48.29
2022-12-24T14:26:59.796Z,48.31
2022-12-24T14:29:30.136Z,48.19
2022-12-24T14:31:59.953Z,48.06
2022-12-24T14:34:27.866Z,48.59
2022-12-24T14:36:57.669Z,48.58
2022-12-24T14:39:33.431Z,47.58
2022-12-24T14:42:11.497Z,48.22
2022-12-24T14:44:47.332Z,48.07
2022-12-24T14:47:30.403Z,47.93
2022-12-24T14:50:04.990Z,49.05
2022-12-24T14:53:04.548Z,48.14
2022-12-24T14:55:37.662Z,48.27
2022-12-24T14:58:26.252Z,47.95
2022-12-24T15:00:56.354Z,48.75
2022-12-24T15:03:25.958Z,48.73
2022-12-24T15:05:56.547Z,48.40
2022-12-24T15:08:31.960Z,47.92
2022-12-24T15:11:05.798Z,48.33
2022-12-24T15:13:38.134Z,48.37
2022-12-24T15:16:09.057Z,48.79
2022-12-24T15:18:40.378Z,48.86
2022-12-24T15:21:16.087Z,48.74
2022-12-24T15:23:48.875Z,48.61
2022-12-24T15:26:24.359Z,48.50
2022-12-24T15:28:58.198Z,48.83
2022-12-24T15:31:31.208Z,49.25
2022-12-24T15:34:00.320Z,48.97
2022-12-24T15:36:31.953Z,48.89
2022-12-24T15:39:03.377Z,49.40
2022-12-24T15:41:59.403Z,48.84
2022-12-24T15:44:28.129Z,49.39
2022-12-24T15:47:00.844Z,48.84
2022-12-24T15:49:29.715Z,49.77
2022-12-24T15:52:04.560Z,49.30
2022-12-24T15:54:33.522Z,49.22
2022-12-24T15:57:13.810Z,49.33
2022-12-24T15:59:41.999Z,49.56
2022-12-24T16:02:34.836Z,49.35
2022-12-24T16:05:32.834Z,49.35
2022-12-24T16:08:09.232Z,49.24
2022-12-24T16:10:40.555Z,49.61
2022-12-24T16:13:20.908Z,49.27
2022-12-24T16:15:53.698Z,49.31
2022-12-24T16:18:24.820Z,49.90
2022-12-24T16:20:54.360Z,49.94
2022-12-24T16:23:24.671Z,49.58
2022-12-24T16:25:53.831Z,49.76
2022-12-24T16:28:23.387Z,49.77
2022-12-24T16:30:51.558Z,49.54
2022-12-24T16:33:21.659Z,49.91
2022-12-24T16:35:49.798Z,49.87
2022-12-24T16:38:17.749Z,49.54
2022-12-24T16:40:45.601Z,49.85
2022-12-24T16:43:31.863Z,49.56
2022-12-24T16:46:03.918Z,50.27
2022-12-24T16:48:34.031Z,49.90
2022-12-24T16:51:01.796Z,49.85
2022-12-24T16:53:29.664Z,50.18
2022-12-24T16:55:57.519Z,49.73
2022-12-24T16:58:25.343Z,50.36
2022-12-24T17:00:53.528Z,50.02
2022-12-24T17:03:23.267Z,50.39
2022-12-24T17:05:51.447Z,50.28
2022-12-24T17:08:19.478Z,50.20
2022-12-24T17:10:51.944Z,50.14
2022-12-24T17:13:19.890Z,50.64
2022-12-24T17:15:47.808Z,50.14
2022-12-24T17:18:15.893Z,50.33
2022-12-24T17:20:45.243Z,50.12
2022-12-24T17:23:13.240Z,50.26
2022-12-24T17:25:41.307Z,50.26
2022-12-24T17:28:09.393Z,50.01
2022-12-24T17:30:41.014Z,50.31
2022-12-24T17:33:14.392Z,49.93
2022-12-24T17:35:43.347Z,50.14
2022-12-24T17:38:12.923Z,50.03
2022-12-24T17:40:41.154Z,50.19
2022-12-24T17:43:09.155Z,49.97
2022-12-24T17:45:41.505Z,49.82
2022-12-24T17:48:09.750Z,50.01
2022-12-24T17:50:39.903Z,49.95
2022-12-24T17:53:07.895Z,50.54
2022-12-24T17:55:40.826Z,50.07
2022-12-24T17:58:08.859Z,50.83
2022-12-24T18:00:37.152Z,50.50
2022-12-24T18:03:05.253Z,50.03
2022-12-24T18:05:35.359Z,50.41
2022-12-24T18:08:03.304Z,50.62
2022-12-24T18:10:31.164Z,50.82
2022-12-24T18:13:00.408Z,50.75
2022-12-24T18:15:28.419Z,50.68
2022-12-24T18:17:57.347Z,50.73
2022-12-24T18:20:25.185Z,50.55
2022-12-24T18:22:53.245Z,50.87
2022-12-24T18:25:21.248Z,51.12
2022-12-24T18:27:49.331Z,50.60
2022-12-24T18:30:22.991Z,51.04
2022-12-24T18:32:55.353Z,50.83
2022-12-24T18:35:23.129Z,51.03
2022-12-24T18:37:51.042Z,50.69
2022-12-24T18:40:20.530Z,50.44
2022-12-24T18:42:48.485Z,50.96
2022-12-24T18:45:16.343Z,50.90
2022-12-24T18:47:45.789Z,50.54
2022-12-24T18:50:13.527Z,50.48
2022-12-24T18:52:41.358Z,50.57
2022-12-24T18:55:10.312Z,50.76
2022-12-24T18:57:38.104Z,50.72
2022-12-24T19:00:09.251Z,50.93
2022-12-24T19:02:37.231Z,50.80
2022-12-24T19:05:07.499Z,51.32
2022-12-24T19:07:35.358Z,51.06
2022-12-24T19:10:03.258Z,51.08
2022-12-24T19:12:31.151Z,50.95
2022-12-24T19:14:58.923Z,51.16
2022-12-24T19:17:26.876Z,51.47
2022-12-24T19:19:54.731Z,51.68
2022-12-24T19:22:24.069Z,51.75
2022-12-24T19:24:51.900Z,51.32
2022-12-24T19:27:19.676Z,51.28
2022-12-24T19:29:47.483Z,51.71
2022-12-24T19:32:15.311Z,51.88
2022-12-24T19:34:43.108Z,51.37
2022-12-24T19:37:11.291Z,51.88
2022-12-24T19:39:40.804Z,51.89
2022-12-24T19:42:08.685Z,52.07
2022-12-24T19:44:36.584Z,52.00
2022-12-24T19:47:04.448Z,51.54
2022-12-24T19:49:32.347Z,52.01
2022-12-24T19:52:00.178Z,51.73
2022-12-24T19:54:28.210Z,51.52
2022-12-24T19:56:57.374Z,51.94
2022-12-24T19:59:25.200Z,51.79
2022-12-24T20:01:54.397Z,51.85
2022-12-24T20:04:22.396Z,51.49
2022-12-24T20:06:54.733Z,51.50
2022-12-24T20:09:25.849Z,51.58
2022-12-24T20:11:53.696Z,51.26
2022-12-24T20:14:22.958Z,51.71
2022-12-24T20:16:51.086Z,51.81
2022-12-24T20:19:19.007Z,51.49
2022-12-24T20:21:46.830Z,51.53
2022-12-24T20:24:14.742Z,51.58
2022-12-24T20:26:42.620Z,51.92
2022-12-24T20:29:12.058Z,51.48
2022-12-24T20:31:41.331Z,52.04
2022-12-24T20:34:09.183Z,51.79
2022-12-24T20:36:38.155Z,51.79
2022-12-24T20:39:06.604Z,51.71
2022-12-24T20:41:34.566Z,51.89
2022-12-24T20:44:04.472Z,51.79
2022-12-24T20:46:33.105Z,52.11
2022-12-24T20:49:02.344Z,52.04
2022-12-24T20:51:30.214Z,51.57
2022-12-24T20:54:00.794Z,51.96
2022-12-24T20:56:29.074Z,51.72
2022-12-24T20:58:58.324Z,52.15
2022-12-24T21:01:28.788Z,51.96
2022-12-24T21:04:00.332Z,51.97
2022-12-24T21:06:29.614Z,51.73
2022-12-24T21:08:57.433Z,51.83
2022-12-24T21:11:43.305Z,51.74
2022-12-24T21:14:12.013Z,52.29
2022-12-24T21:16:40.716Z,51.77
2022-12-24T21:19:12.417Z,51.83
2022-12-24T21:21:42.445Z,51.76
2022-12-24T21:24:10.618Z,52.06
2022-12-24T21:26:38.874Z,51.69
2022-12-24T21:29:08.206Z,51.92
2022-12-24T21:31:36.944Z,51.75
2022-12-24T21:34:04.884Z,52.26
2022-12-24T21:36:32.780Z,52.23
2022-12-24T21:39:01.913Z,51.61
2022-12-24T21:41:30.022Z,51.71
2022-12-24T21:44:00.858Z,51.83
2022-12-24T21:46:29.076Z,52.17
2022-12-24T21:49:15.546Z,51.61
2022-12-24T21:51:46.639Z,51.90
2022-12-24T21:54:26.928Z,51.58
2022-12-24T21:57:14.210Z,51.79
2022-12-24T21:59:42.863Z,51.54
2022-12-24T22:02:12.288Z,51.98
2022-12-24T22:04:40.721Z,51.96
2022-12-24T22:07:25.868Z,51.55
2022-12-24T22:10:12.456Z,51.47
2022-12-24T22:12:40.296Z,51.65
2022-12-24T22:15:09.119Z,51.86
2022-12-24T22:17:36.994Z,51.90
2022-12-24T22:20:05.543Z,51.53
2022-12-24T22:22:33.416Z,51.65
2022-12-24T22:25:02.528Z,51.84
2022-12-24T22:27:30.539Z,51.54
2022-12-24T22:29:58.710Z,52.07
2022-12-24T22:32:26.632Z,51.89
2022-12-24T22:34:54.439Z,51.68
2022-12-24T22:37:22.472Z,51.86
2022-12-24T22:39:50.250Z,51.80
2022-12-24T22:42:19.585Z,51.43
2022-12-24T22:44:48.532Z,51.67
2022-12-24T22:47:16.323Z,51.79
2022-12-24T22:49:44.117Z,51.69
2022-12-24T22:52:12.001Z,51.76
2022-12-24T22:54:39.770Z,52.16
2022-12-24T22:57:07.632Z,52.10
2022-12-24T22:59:36.891Z,51.74
2022-12-24T23:02:05.700Z,51.73
2022-12-24T23:04:36.311Z,51.90
2022-12-24T23:07:04.403Z,51.82
2022-12-24T23:09:32.256Z,51.92
2022-12-24T23:12:00.278Z,52.03
2022-12-24T23:14:45.769Z,51.88
2022-12-24T23:17:15.337Z,52.10
2022-12-24T23:19:43.445Z,52.24
2022-12-24T23:22:11.946Z,52.14
2022-12-24T23:24:40.995Z,52.17
2022-12-24T23:27:09.249Z,52.09
2022-12-24T23:29:37.063Z,52.22
2022-12-24T23:32:05.135Z,51.96
2022-12-24T23:34:34.443Z,51.84
2022-12-24T23:37:02.279Z,52.11
2022-12-24T23:39:30.096Z,52.23
2022-12-24T23:41:57.868Z,51.90
2022-12-24T23:44:32.035Z,52.37
2022-12-24T23:47:00.630Z,52.15
2022-12-24T23:49:28.540Z,51.82
2022-12-24T23:51:57.733Z,52.17
2022-12-24T23:54:25.532Z,51.99
2022-12-24T23:56:53.389Z,51.96
2022-12-24T23:59:21.177Z,52.08
